Milford, UT

2:18 PM MDT on August 30, 2015 (GMT -0600)
Milford Municipal | | Change Station
CLOSE
Current Station
Airport
Location: Milford,
Elevation: 5039 ft
Nearby Weather Stations

Elev 5039 ft 38.43 °N, 113.01 °W | Updated 26 minutes ago

Clear
Clear
87 °F
Feels Like 87 °F
N
31
Wind Variable Wind from SSW
Gusts 38 mph

Today
High -- | Low -- °F
--% Chance of Precip.
Yesterday
High -- | Low -- °F
Precip. -- in
6:59 AM 8:05 PM
Full, 98% visible
Pressure 29.82 in
Visibility 10.0 miles
Clouds Clear
Dew Point 45 °F
Humidity 23%
Rainfall 0.00 in
Snow Depth Not available.
UV 11 out of 12
Pollen 7.60 out of 12
Air Quality Not available.
Flu Activity Not available.
METAR KMLF 301952Z AUTO 21027G33KT 10SM CLR 31/07 A3004 RMK AO2 PK WND 23037/1918 SLP096 T03060072
Pressure 29.82 in
Visibility 10.0 miles
Clouds Clear
Dew Point 45 °F
Humidity 23%
Rainfall 0.00 in
Snow Depth Not available.
UV 11 out of 12
Pollen 7.60 out of 12
Air Quality Not available.
Flu Activity Not available.
METAR KMLF 301952Z AUTO 21027G33KT 10SM CLR 31/07 A3004 RMK AO2 PK WND 23037/1918 SLP096 T03060072
Nowcast | as of 1:38 PM MDT on August 30, 2015

Scattered showers and thunderstorms will continue to develop this afternoon over portions of southern...central and northeast Utah. The strongest storms at 130 PM were located just east of Wellington...and over southeast Washington County. Some of the stronger storms may produce brief heavy rain...small hail...strong gusty winds and frequent lightning.

×

10-Day Weather Forecast

×

Almanac

Astronomy

Aug. 30, 2015 Rise Set
Actual Time
Civil Twilight
Nautical Twilight
Astronomical Twilight
Moon
Length of Visible Light
Length of Day
Tomorrow will be .
, % of the Moon is Illuminated

Today's Extremes

State Highs State Lows

Community

WunderPhotos

Upload Photos

1,851,048 photos uploaded!

WunderBlogs® & News

Nearby

Air Quality

  Air Quality AQ Index Pollutant
Not available.

Snow Depth

Station Depth Elevation

Earthquake Activity

City Distance Mag. Time & Date
Minimum magnitude displayed is 2.5.

Coastal Water Temperatures

Place Temperature

Stations

Nearby Weather Stations

Station Location Temp. Windchill Dew Point Humidity Wind Precip. Elev Updated Type